Logo AVAMET
Benvolgut visitant, si us plau, ingressa Recuperar contrasenya

Redovà

Dades diàries. Acumulats / Últims 30 dies disponibles

Data Temperatura (°C) Humitat rel. (%) Pressió rel. (hPa) Vent (km/h) Precipitació
Mínima Mitjana Màxima Amplitud
tèrmica
Mínima Mitjana Màxima Mínima Mitjana Màxima Predom. Mitjana Ràfega
màxima
Total
(mm)
Índex-n
Mínima Mitjana Màxima Mínima Mitjana Màxima n
0 a 1
P0 max
mm 5'
Dades mensuals acumulades fins l'últim dia disponible
10/2019 12,2 17,8 22,1 23,1 24,2 29,0 34,9 22,7 22 65 94 1.010 1.018 1.024   2,6 33,8 0,8
Dades anuals acumulades fins l'últim dia disponible
2019 1,3 15,1 26,5 20,1 13,1 25,9 42,7 41,4 0 64 96 997 1.019 1.036   2,9 57,9 447,2
Últims 30 dies disponibles
18-10-2019 15,3     21,3     29,2 13,9 30 55 70 1.016 1.018 1.020 E 1,2 17,7 0,0
17-10-2019 13,3     19,9     28,9 15,6 25 59 84 1.017 1.019 1.021 SE 0,7 14,5 0,0
16-10-2019 12,2     18,5     26,7 14,5 33 59 77 1.018 1.021 1.023 SE 1,2 16,1 0,0
15-10-2019 16,9     20,1     24,2 7,3 33 47 62 1.018 1.021 1.023 S 5,2 33,8 0,0
14-10-2019 18,9     22,0     27,1 8,2 53 83 94 1.013 1.015 1.018 SSE 1,7 22,5 0,8
13-10-2019 18,8     23,5     29,6 10,8 57 79 91 1.017 1.018 1.019 ESE 2,1 20,9 0,0
12-10-2019 19,8     23,1     27,2 7,4 69 80 88 1.017 1.019 1.021 SSE 2,9 30,6 0,0
11-10-2019 18,8     23,8     26,9 8,1 61 75 89 1.021 1.022 1.024 SE 4,2 27,4 0,0
10-10-2019 20,1     24,1     27,7 7,6 62 73 87 1.021 1.023 1.023 ESE 4,8 20,9 0,0
08-10-2019 20,4     23,1     27,8 7,4 59 75 85 1.020 1.021 1.023 E 1,4 17,7 0,0
07-10-2019 18,3     23,8     31,6 13,3 32 70 92 1.017 1.018 1.021 SE 3,4 27,4 0,0
06-10-2019 17,2     23,2     29,4 12,2 53 78 92 1.018 1.019 1.020 E 2,2 20,9 0,0
05-10-2019 17,0     22,8     28,9 11,9 44 69 88 1.016 1.017 1.018 ESE 3,2 24,1 0,0
04-10-2019 15,4     25,3     31,3 15,9 29 52 78 1.016 1.018 1.019 SE 1,4 17,7 0,0
03-10-2019 17,3     22,8     31,4 14,1 26 60 87 1.016 1.018 1.019 SSO 1,6 20,9 0,0
02-10-2019 22,1     26,3     30,8 8,7 22 45 79 1.013 1.015 1.018 SSO 4,2 29,0 0,0
01-10-2019 21,1     29,3     34,9 13,8 26 47 89 1.010 1.012 1.015 SSO 3,5 19,3 0,0
30-09-2019 19,2     21,1     24,6 5,4 72 86 93 1.018 1.018 1.019 NE 0,2 6,4 0,2
28-09-2019 19,4     23,7     28,4 9,0 64 82 94 1.019 1.021 1.023 SE 3,4 27,4 0,0
27-09-2019 19,9     24,4     32,4 12,5 49 79 93 1.018 1.020 1.021 SSE 1,6 22,5 0,0
26-09-2019 19,9     24,2     29,4 9,5 59 78 90 1.019 1.020 1.022 SSE 2,1 19,3 0,0
25-09-2019 21,3     26,0     33,1 11,8 40 64 85 1.015 1.017 1.019 SSO 4,0 32,2 0,0
24-09-2019 18,6     25,6     34,1 15,5 31 64 88 1.016 1.018 1.021 SSE 1,2 12,9 0,0
23-09-2019 20,9     25,2     31,0 10,1 40 56 82 1.018 1.020 1.022 SSE 2,9 19,3 0,0
22-09-2019 22,0     26,5     32,4 10,4 42 72 90 1.013 1.014 1.017 SSO 1,1 19,3 0,0
21-09-2019 22,6     25,7     29,1 6,5 61 75 87 1.012 1.015 1.017 S 1,2 20,9 0,0
20-09-2019 22,2     24,5     27,4 5,2 80 89 1.016 1.018 1.019 E 4,6 33,8 0,0
19-09-2019 19,0     23,9     29,0 10,0 55 79 91 1.017 1.018 1.019 S 2,7 20,9 0,0
18-09-2019 20,6     24,6     30,3 9,7 53 79 94 1.015 1.016 1.018 SE 2,3 19,3 0,0
17-09-2019 21,8     24,1     28,2 6,4 71 86 94 1.015 1.018 1.020 SSE 1,3 30,6 0,0
Últims 13 mesos disponibles
09/2019 16,3 20,7 24,2 24,5 22,9 29,4 35,4 19,1 48 74 88 1.012 1.019 1.024 SSE 2,9 51,5 307,6
08/2019 19,8 22,7 25,8 27,3 29,5 33,0 42,7 22,9 36 67 80 1.012 1.017 1.021 ESE 2,4 45,1 32,8
07/2019 21,0 23,1 26,5 28,3 29,6 33,7 38,9 17,9 36 60 73 1.008 1.015 1.021 ESE 4,1 41,8 0,2
06/2019 13,9 18,6 23,2 24,4 24,7 30,2 36,3 22,4 37 59 73 1.010 1.016 1.024 SSE 3,8 49,9 0,8
05/2019 11,6 15,4 21,2 20,6 21,6 26,3 32,7 21,1 46 64 75 1.008 1.017 1.026 SE 3,6 48,3 3,4
04/2019 8,3 12,1 15,8 16,3 14,6 21,7 29,9 21,6 46 67 90 1.002 1.015 1.027 S 2,7 57,9 80,4
03/2019 5,4 9,2 13,2 14,9 13,1 21,4 28,7 23,3 40 62 90 1.013 1.024 1.032 SSE 2,2 46,7 18,6
02/2019 4,9 7,8 11,9 13,1 14,2 19,9 28,3 23,4 37 63 78 999 1.027 1.034 SSE 2,3 51,5 0,0
01/2019 1,3 6,7 13,0 11,7 13,4 17,9 23,2 21,9 40 60 81 1.007 1.021 1.033 SSO 1,8 40,2 2,6
12/2018 5,1 7,8 11,8 12,3 15,3 18,3 21,0 15,9 59 73 83 1.024 1.030 1.033 E 0,8 29,0 0,2
10/2018 9,3 15,0 18,7 19,6 17,5 26,4 30,5 21,2 43 72 83 1.002 1.016 1.026 SSE 2,0 49,9 55,6
Tots els anys disponibles
Temperatura (°C)
Humitat relativa (%)
Velocitat del vent i ràfega màxima (km/h)
Direcció del vent (°)
Pressió (hPa)
Precipitació (mm)
Nota sobre les dades: s'avisa a l'usuari de la provisionalitat i no oficialitat d'aquestes dades
Logo AVAMET blanc
Web allotjada a Sollutia
Llicència de Creative CommonsLa web d'AVAMET i els seus continguts estan subjectes a una llicència de
Reconeixement - No Comercial - Compartir igual
Últimes estacions: Villena - Villa Ventín (Soci), Benissa - Convent (Soci), Xàbia Fontanella (Soci), Castielfabib (Soci), Sant Mateu (Soci), - - -